createdAt,value
2023-03-21T00:02:54.599Z,16.40
2023-03-21T00:06:25.528Z,16.90
2023-03-21T00:10:08.643Z,18.70
2023-03-21T00:13:49.737Z,18.30
2023-03-21T00:17:16.385Z,18.90
2023-03-21T00:21:15.817Z,18.00
2023-03-21T00:24:48.590Z,16.70
2023-03-21T00:28:18.394Z,17.60
2023-03-21T00:36:06.369Z,16.30
2023-03-21T00:39:26.551Z,17.00
2023-03-21T00:42:46.024Z,17.50
2023-03-21T00:46:39.812Z,18.20
2023-03-21T00:50:07.598Z,19.00
2023-03-21T00:53:41.997Z,17.40
2023-03-21T00:57:37.589Z,17.30
2023-03-21T01:01:22.193Z,17.70
2023-03-21T01:04:58.038Z,16.60
2023-03-21T01:08:44.664Z,16.60
2023-03-21T01:12:40.133Z,18.50
2023-03-21T01:16:03.494Z,18.70
2023-03-21T01:19:51.568Z,19.70
2023-03-21T01:23:41.527Z,17.70
2023-03-21T01:27:10.609Z,19.20
2023-03-21T01:30:53.078Z,17.50
2023-03-21T01:34:31.599Z,17.70
2023-03-21T01:38:14.331Z,17.30
2023-03-21T01:42:09.189Z,17.50
2023-03-21T01:45:56.802Z,19.40
2023-03-21T01:49:51.612Z,19.80
2023-03-21T01:53:42.159Z,20.10
2023-03-21T01:57:17.504Z,20.80
2023-03-21T02:01:00.611Z,19.10
2023-03-21T02:04:49.601Z,19.60
2023-03-21T02:42:59.972Z,19.00
2023-03-21T02:46:04.759Z,19.50
2023-03-21T02:49:20.489Z,19.00
2023-03-21T02:52:28.320Z,17.80
2023-03-21T02:55:28.228Z,19.90
2023-03-21T02:58:27.817Z,21.20
2023-03-21T03:01:30.324Z,22.00
2023-03-21T03:04:31.899Z,20.40
2023-03-21T03:07:34.836Z,20.00
2023-03-21T03:10:47.659Z,18.70
2023-03-21T03:14:38.554Z,18.60
2023-03-21T03:17:58.553Z,19.30
2023-03-21T03:21:17.722Z,19.20
2023-03-21T03:24:31.570Z,19.10
2023-03-21T03:27:30.148Z,18.80
2023-03-21T03:30:43.127Z,21.00
2023-03-21T03:33:38.169Z,20.50
2023-03-21T03:36:52.138Z,20.10
2023-03-21T03:40:09.152Z,19.50
2023-03-21T03:43:22.472Z,20.30
2023-03-21T03:46:35.164Z,20.60
2023-03-21T03:49:21.270Z,18.70
2023-03-21T03:52:22.823Z,19.00
2023-03-21T03:55:28.328Z,18.90
2023-03-21T03:58:44.633Z,19.10
2023-03-21T04:01:29.268Z,20.50
2023-03-21T04:04:29.888Z,21.70
2023-03-21T04:07:30.905Z,20.40
2023-03-21T04:10:32.973Z,18.70
2023-03-21T04:13:35.656Z,18.70
2023-03-21T04:16:42.123Z,19.50
2023-03-21T04:20:00.029Z,18.20
2023-03-21T04:23:10.014Z,19.20
2023-03-21T04:26:09.739Z,19.70
2023-03-21T04:29:16.101Z,21.40
2023-03-21T04:32:54.201Z,21.20
2023-03-21T04:36:06.784Z,18.00
2023-03-21T04:39:26.092Z,17.00
2023-03-21T04:42:39.735Z,19.10
2023-03-21T04:45:45.182Z,17.60
2023-03-21T04:48:49.494Z,20.50
2023-03-21T04:52:06.131Z,19.70
2023-03-21T04:55:20.347Z,21.50
2023-03-21T04:58:20.674Z,21.10
2023-03-21T05:01:32.376Z,20.20
2023-03-21T05:04:32.105Z,19.70
2023-03-21T05:07:35.985Z,20.20
2023-03-21T05:10:33.032Z,19.60
2023-03-21T05:13:31.740Z,17.30
2023-03-21T05:16:56.701Z,18.00
2023-03-21T05:19:56.947Z,19.60
2023-03-21T05:23:05.668Z,21.90
2023-03-21T05:26:04.255Z,20.30
2023-03-21T05:29:15.842Z,18.60
2023-03-21T05:32:10.947Z,17.10
2023-03-21T05:34:54.682Z,20.20
2023-03-21T05:37:39.651Z,18.60
2023-03-21T05:40:15.978Z,18.50
2023-03-21T05:42:55.961Z,17.60
2023-03-21T05:45:35.787Z,21.10
2023-03-21T05:48:20.192Z,21.40
2023-03-21T05:51:23.977Z,21.70
2023-03-21T05:53:58.565Z,20.70
2023-03-21T05:56:36.601Z,20.70
2023-03-21T05:59:27.651Z,19.80
2023-03-21T06:02:06.231Z,19.40
2023-03-21T06:04:52.729Z,19.60
2023-03-21T06:07:37.174Z,19.90
2023-03-21T06:10:15.658Z,22.10
2023-03-21T06:12:51.643Z,22.10
2023-03-21T06:15:31.696Z,28.00
2023-03-21T06:18:23.318Z,32.30
2023-03-21T06:21:28.866Z,25.10
2023-03-21T06:24:11.372Z,20.00
2023-03-21T06:26:55.212Z,18.70
2023-03-21T06:29:37.212Z,20.70
2023-03-21T06:32:23.915Z,20.60
2023-03-21T06:35:05.171Z,21.50
2023-03-21T06:37:45.658Z,19.10
2023-03-21T06:40:23.095Z,16.10
2023-03-21T06:43:28.895Z,16.30
2023-03-21T06:46:07.615Z,14.60
2023-03-21T06:49:05.103Z,14.10
2023-03-21T06:51:45.536Z,18.20
2023-03-21T06:54:26.301Z,16.40
2023-03-21T06:57:11.382Z,18.40
2023-03-21T06:59:51.632Z,17.40
2023-03-21T07:02:33.551Z,17.60
2023-03-21T07:05:19.714Z,15.20
2023-03-21T07:08:01.508Z,14.30
2023-03-21T07:10:45.336Z,12.50
2023-03-21T07:13:23.318Z,12.60
2023-03-21T07:16:16.324Z,12.30
2023-03-21T07:18:59.016Z,14.90
2023-03-21T07:21:36.403Z,11.80
2023-03-21T07:24:13.460Z,11.20
2023-03-21T07:26:45.098Z,11.70
2023-03-21T07:29:22.832Z,12.40
2023-03-21T07:31:57.925Z,14.40
2023-03-21T07:34:33.329Z,15.00
2023-03-21T07:37:09.980Z,15.80
2023-03-21T07:39:43.797Z,15.50
2023-03-21T07:42:21.787Z,14.50
2023-03-21T07:44:55.286Z,14.80
2023-03-21T07:47:30.144Z,17.20
2023-03-21T07:50:09.560Z,16.80
2023-03-21T07:52:43.247Z,18.60
2023-03-21T07:55:20.028Z,18.60
2023-03-21T07:57:54.748Z,17.50
2023-03-21T08:00:28.776Z,18.80
2023-03-21T08:03:01.261Z,15.70
2023-03-21T08:05:39.777Z,16.00
2023-03-21T08:08:15.190Z,13.60
2023-03-21T08:10:48.792Z,14.20
2023-03-21T08:13:32.828Z,15.20
2023-03-21T08:16:10.733Z,15.00
2023-03-21T08:18:45.367Z,17.60
2023-03-21T08:21:17.417Z,16.20
2023-03-21T08:23:51.529Z,18.50
2023-03-21T08:26:26.747Z,16.60
2023-03-21T08:29:00.579Z,14.90
2023-03-21T08:31:36.997Z,14.10
2023-03-21T08:34:11.049Z,14.30
2023-03-21T08:36:45.262Z,14.50
2023-03-21T08:39:24.315Z,15.60
2023-03-21T08:42:01.880Z,16.00
2023-03-21T08:44:39.986Z,17.70
2023-03-21T08:47:16.862Z,14.80
2023-03-21T08:49:53.747Z,14.90
2023-03-21T08:52:26.108Z,14.80
2023-03-21T08:55:04.008Z,14.40
2023-03-21T08:57:41.907Z,15.40
2023-03-21T09:00:20.907Z,17.40
2023-03-21T09:02:56.283Z,17.40
2023-03-21T09:05:42.268Z,15.50
2023-03-21T09:08:27.848Z,14.10
2023-03-21T09:11:14.354Z,12.60
2023-03-21T09:14:16.517Z,11.60
2023-03-21T09:17:08.766Z,14.20
2023-03-21T09:19:51.057Z,16.40
2023-03-21T09:22:40.236Z,16.60
2023-03-21T09:25:27.030Z,16.50
2023-03-21T09:28:20.186Z,16.10
2023-03-21T09:31:01.565Z,16.10
2023-03-21T09:33:44.079Z,16.70
2023-03-21T09:36:35.393Z,18.60
2023-03-21T09:39:18.310Z,16.80
2023-03-21T09:42:31.128Z,14.30
2023-03-21T09:45:24.181Z,15.20
2023-03-21T09:48:10.924Z,16.30
2023-03-21T09:50:59.645Z,17.50
2023-03-21T09:53:50.915Z,17.60
2023-03-21T09:56:40.946Z,19.80
2023-03-21T09:59:33.596Z,19.40
2023-03-21T10:02:29.304Z,21.70
2023-03-21T10:05:23.897Z,20.60
2023-03-21T10:08:33.339Z,21.70
2023-03-21T10:11:34.068Z,23.20
2023-03-21T10:14:21.913Z,23.70
2023-03-21T10:17:12.498Z,24.50
2023-03-21T10:20:35.362Z,23.80
2023-03-21T10:23:12.868Z,24.10
2023-03-21T10:25:58.770Z,24.10
2023-03-21T10:28:52.306Z,24.50
2023-03-21T10:31:33.829Z,29.50
2023-03-21T10:34:20.179Z,21.70
2023-03-21T10:36:56.880Z,19.90
2023-03-21T10:39:55.965Z,20.60
2023-03-21T10:42:43.165Z,22.00
2023-03-21T10:45:35.075Z,21.90
2023-03-21T10:48:12.866Z,22.00
2023-03-21T10:51:01.164Z,19.90
2023-03-21T10:53:51.517Z,25.70
2023-03-21T10:56:28.255Z,20.10
2023-03-21T10:59:09.581Z,20.60
2023-03-21T11:01:46.652Z,21.70
2023-03-21T11:04:21.024Z,22.90
2023-03-21T11:07:00.226Z,23.40
2023-03-21T11:10:00.536Z,20.40
2023-03-21T11:12:42.226Z,18.10
2023-03-21T11:15:41.335Z,18.40
2023-03-21T11:18:32.233Z,20.50
2023-03-21T11:21:08.188Z,20.60
2023-03-21T11:23:57.221Z,22.50
2023-03-21T11:26:36.891Z,23.60
2023-03-21T11:29:41.417Z,22.20
2023-03-21T11:32:15.016Z,22.80
2023-03-21T11:35:14.287Z,24.60
2023-03-21T11:37:53.333Z,23.80
2023-03-21T11:40:40.668Z,22.80
2023-03-21T11:43:36.591Z,23.60
2023-03-21T11:46:13.605Z,22.90
2023-03-21T11:48:59.042Z,20.90
2023-03-21T11:52:09.096Z,20.30
2023-03-21T11:55:03.281Z,19.60
2023-03-21T11:58:16.720Z,21.20
2023-03-21T12:01:18.878Z,22.50
2023-03-21T12:04:01.201Z,21.10
2023-03-21T12:06:55.474Z,21.60
2023-03-21T12:09:35.927Z,20.50
2023-03-21T12:15:01.660Z,22.30
2023-03-21T12:17:48.471Z,21.70
2023-03-21T12:20:39.811Z,20.20
2023-03-21T12:23:32.537Z,19.90
2023-03-21T12:26:45.870Z,20.90
2023-03-21T12:29:50.246Z,20.10
2023-03-21T12:32:44.670Z,21.80
2023-03-21T12:35:53.628Z,21.60
2023-03-21T12:38:54.528Z,23.00
2023-03-21T12:41:46.059Z,21.60
2023-03-21T12:44:20.833Z,22.20
2023-03-21T12:47:30.627Z,21.40
2023-03-21T12:50:33.002Z,18.40
2023-03-21T12:53:44.676Z,18.30
2023-03-21T12:56:48.095Z,16.30
2023-03-21T12:59:29.980Z,16.30
2023-03-21T13:02:31.446Z,18.40
2023-03-21T13:05:58.317Z,14.50
2023-03-21T13:09:15.967Z,14.30
2023-03-21T13:14:55.705Z,15.10
2023-03-21T13:17:36.541Z,15.00
2023-03-21T13:20:48.054Z,14.90
2023-03-21T13:23:40.781Z,20.00
2023-03-21T13:26:31.581Z,20.10
2023-03-21T13:29:07.333Z,19.80
2023-03-21T13:31:53.063Z,20.50
2023-03-21T13:34:34.503Z,20.30
2023-03-21T13:37:23.250Z,20.60
2023-03-21T13:40:13.752Z,21.00
2023-03-21T13:42:58.720Z,21.70
2023-03-21T13:45:36.538Z,21.60
2023-03-21T13:48:58.822Z,22.80
2023-03-21T13:51:56.732Z,22.90
2023-03-21T13:54:49.772Z,24.70
2023-03-21T14:00:46.348Z,23.90
2023-03-21T14:03:39.512Z,22.10
2023-03-21T14:07:01.298Z,20.80
2023-03-21T14:09:52.431Z,18.40
2023-03-21T14:12:40.067Z,19.00
2023-03-21T14:15:49.695Z,22.70
2023-03-21T14:18:51.790Z,22.10
2023-03-21T14:21:31.310Z,22.50
2023-03-21T14:24:24.363Z,21.20
2023-03-21T14:27:06.059Z,20.40
2023-03-21T14:29:42.628Z,19.90
2023-03-21T14:32:26.771Z,19.50
2023-03-21T14:35:01.539Z,21.00
2023-03-21T14:37:48.303Z,21.00
2023-03-21T14:40:36.019Z,20.40
2023-03-21T14:43:11.579Z,20.10
2023-03-21T14:45:47.227Z,23.70
2023-03-21T14:48:40.387Z,22.10
2023-03-21T14:51:17.718Z,21.80
2023-03-21T14:53:52.442Z,23.30
2023-03-21T14:56:43.095Z,22.40
2023-03-21T14:59:18.027Z,22.00
2023-03-21T15:01:53.080Z,22.30
2023-03-21T15:04:29.526Z,21.40
2023-03-21T15:07:38.875Z,21.30
2023-03-21T15:10:18.860Z,19.00
2023-03-21T15:13:19.958Z,18.90
2023-03-21T15:15:58.841Z,18.60
2023-03-21T15:18:34.970Z,20.10
2023-03-21T15:21:17.698Z,20.20
2023-03-21T15:26:27.000Z,19.70
2023-03-21T15:29:04.906Z,20.70
2023-03-21T15:31:43.844Z,19.40
2023-03-21T15:34:28.720Z,19.70
2023-03-21T15:37:13.857Z,19.60
2023-03-21T15:39:49.494Z,19.60
2023-03-21T15:42:42.557Z,19.80
2023-03-21T15:45:24.776Z,19.20
2023-03-21T15:48:09.178Z,19.70
2023-03-21T15:50:52.640Z,20.80
2023-03-21T15:53:31.334Z,19.10
2023-03-21T15:56:08.548Z,20.00
2023-03-21T15:58:44.190Z,18.50
2023-03-21T16:01:26.587Z,18.90
2023-03-21T16:04:11.157Z,16.30
2023-03-21T16:07:02.454Z,15.60
2023-03-21T16:09:46.376Z,15.80
2023-03-21T16:12:21.859Z,20.20
2023-03-21T16:14:56.679Z,20.60
2023-03-21T16:17:42.157Z,19.00
2023-03-21T16:20:22.417Z,19.00
2023-03-21T16:22:59.963Z,18.60
2023-03-21T16:25:36.168Z,20.50
2023-03-21T16:28:16.967Z,21.60
2023-03-21T16:30:58.927Z,22.70
2023-03-21T16:33:47.426Z,21.80
2023-03-21T16:36:23.683Z,20.20
2023-03-21T16:39:11.061Z,19.20
2023-03-21T16:41:43.026Z,18.40
2023-03-21T16:44:35.975Z,24.30
2023-03-21T16:47:28.108Z,25.30
2023-03-21T16:50:32.457Z,22.70
2023-03-21T16:53:10.023Z,19.80
2023-03-21T16:55:47.214Z,20.20
2023-03-21T16:58:30.020Z,20.30
2023-03-21T17:01:18.104Z,21.30
2023-03-21T17:03:57.598Z,19.50
2023-03-21T17:06:44.905Z,20.20
2023-03-21T17:09:29.274Z,25.40
2023-03-21T17:12:06.244Z,24.50
2023-03-21T17:15:01.146Z,21.70
2023-03-21T17:17:40.276Z,21.10
2023-03-21T17:20:44.390Z,23.10
2023-03-21T17:23:30.906Z,21.40
2023-03-21T17:26:19.648Z,20.20
2023-03-21T17:29:03.084Z,19.10
2023-03-21T17:31:41.491Z,19.10
2023-03-21T17:34:31.377Z,18.20
2023-03-21T17:37:28.518Z,16.70
2023-03-21T17:40:20.140Z,17.90
2023-03-21T17:43:32.357Z,16.20
2023-03-21T17:46:29.523Z,16.40
2023-03-21T17:49:24.298Z,16.70
2023-03-21T17:52:08.445Z,15.40
2023-03-21T17:54:46.998Z,22.20
2023-03-21T17:57:47.380Z,19.10
2023-03-21T18:00:47.808Z,17.80
2023-03-21T18:03:55.506Z,17.60
2023-03-21T18:06:48.470Z,17.70
2023-03-21T18:09:48.480Z,16.70
2023-03-21T18:12:48.599Z,16.20
2023-03-21T18:15:48.289Z,18.80
2023-03-21T18:18:46.840Z,21.00
2023-03-21T18:21:45.330Z,23.00
2023-03-21T18:24:38.434Z,37.20
2023-03-21T18:28:02.090Z,21.60
2023-03-21T18:31:10.258Z,29.70
2023-03-21T18:34:00.920Z,25.10
2023-03-21T18:37:18.552Z,25.40
2023-03-21T18:40:12.113Z,38.20
2023-03-21T18:43:56.077Z,47.90
2023-03-21T18:46:26.148Z,56.60
2023-03-21T18:52:52.842Z,62.30
2023-03-21T18:55:52.756Z,53.80
2023-03-21T18:58:58.923Z,54.40
2023-03-21T19:02:10.449Z,35.80
2023-03-21T19:05:02.887Z,34.60
2023-03-21T19:07:57.439Z,31.20
2023-03-21T19:11:06.675Z,37.50
2023-03-21T19:14:09.460Z,34.40
2023-03-21T19:20:16.877Z,29.60
2023-03-21T19:22:57.205Z,27.60
2023-03-21T19:25:53.453Z,26.00
2023-03-21T19:28:51.321Z,25.30
2023-03-21T19:31:45.338Z,29.00
2023-03-21T19:34:33.131Z,32.20
2023-03-21T19:37:16.356Z,32.70
2023-03-21T19:39:57.536Z,29.60
2023-03-21T19:42:49.565Z,32.10
2023-03-21T19:45:38.537Z,33.70
2023-03-21T19:48:38.546Z,39.70
2023-03-21T19:51:30.883Z,34.00
2023-03-21T19:54:08.473Z,30.50
2023-03-21T19:57:03.064Z,28.80
2023-03-21T19:59:43.114Z,27.80
2023-03-21T20:02:38.181Z,28.30
2023-03-21T20:05:29.124Z,34.10
2023-03-21T20:08:11.175Z,37.90
2023-03-21T20:10:49.030Z,38.40
2023-03-21T20:13:48.125Z,46.00
2023-03-21T20:16:34.575Z,51.60
2023-03-21T20:19:30.130Z,41.90
2023-03-21T20:22:24.484Z,42.10
2023-03-21T20:25:15.827Z,47.10
2023-03-21T20:28:12.621Z,43.40
2023-03-21T20:31:01.212Z,44.10
2023-03-21T20:33:55.917Z,43.10
2023-03-21T20:36:45.227Z,45.80
2023-03-21T20:39:32.709Z,36.40
2023-03-21T20:42:21.366Z,35.50
2023-03-21T20:45:16.055Z,36.80
2023-03-21T20:47:53.404Z,37.90
2023-03-21T20:50:47.977Z,39.00
2023-03-21T20:53:37.608Z,29.80
2023-03-21T20:56:30.870Z,30.30
2023-03-21T20:59:24.456Z,28.60
2023-03-21T21:02:17.132Z,33.60
2023-03-21T21:05:33.076Z,29.80
2023-03-21T21:08:15.074Z,38.10
2023-03-21T21:12:02.959Z,39.30
2023-03-21T21:14:21.561Z,39.30
2023-03-21T21:20:27.849Z,37.30
2023-03-21T21:23:26.432Z,37.80
2023-03-21T21:26:08.743Z,39.40
2023-03-21T21:29:20.022Z,41.00
2023-03-21T21:32:13.487Z,43.00
2023-03-21T21:35:10.848Z,41.60
2023-03-21T21:38:07.603Z,39.80
2023-03-21T21:41:02.484Z,39.30
2023-03-21T21:43:44.991Z,38.10
2023-03-21T21:46:38.857Z,38.00
2023-03-21T21:49:32.384Z,39.40
2023-03-21T21:52:29.194Z,39.90
2023-03-21T21:55:25.509Z,38.10
2023-03-21T21:58:21.342Z,38.80
2023-03-21T22:01:15.564Z,49.60
2023-03-21T22:04:10.863Z,42.90
2023-03-21T22:07:14.496Z,39.10
2023-03-21T22:10:17.715Z,34.50
2023-03-21T22:13:09.639Z,37.30
2023-03-21T22:15:59.450Z,35.80
2023-03-21T22:19:03.120Z,35.90
2023-03-21T22:22:00.990Z,37.20
2023-03-21T22:27:54.981Z,34.00
2023-03-21T22:30:57.052Z,33.10
2023-03-21T22:34:00.248Z,31.40
2023-03-21T22:36:55.964Z,32.90
2023-03-21T22:39:50.968Z,33.00
2023-03-21T22:42:48.426Z,34.30
2023-03-21T22:45:54.923Z,34.80
2023-03-21T22:48:53.182Z,30.80
2023-03-21T22:51:49.816Z,31.40
2023-03-21T22:55:03.558Z,31.50
2023-03-21T22:58:06.132Z,31.00
2023-03-21T23:00:50.659Z,30.30
2023-03-21T23:03:41.900Z,30.10
2023-03-21T23:06:36.122Z,32.10
2023-03-21T23:09:33.853Z,31.10
2023-03-21T23:12:31.617Z,28.90
2023-03-21T23:15:23.542Z,28.10
2023-03-21T23:18:03.698Z,27.00
2023-03-21T23:20:58.283Z,25.60
2023-03-21T23:23:53.901Z,27.50
2023-03-21T23:26:45.827Z,27.60
2023-03-21T23:29:39.500Z,36.20
2023-03-21T23:32:31.326Z,46.30
2023-03-21T23:35:21.470Z,30.90
2023-03-21T23:38:20.405Z,26.30
2023-03-21T23:41:00.161Z,26.70
2023-03-21T23:43:47.988Z,26.20
2023-03-21T23:46:34.497Z,24.80
2023-03-21T23:49:34.013Z,24.10
2023-03-21T23:52:26.429Z,24.00
2023-03-21T23:55:15.300Z,26.00
2023-03-21T23:58:04.960Z,25.60
